sensor_id;sensor_type;location;lat;lon;timestamp;P1;durP1;ratioP1;P2;durP2;ratioP2
43248;SDS011;29216;51.248;6.808;2023-09-19T00:00:52;9.30;;;2.85;;
43248;SDS011;29216;51.248;6.808;2023-09-19T00:03:21;7.32;;;2.75;;
43248;SDS011;29216;51.248;6.808;2023-09-19T00:05:48;7.70;;;2.97;;
43248;SDS011;29216;51.248;6.808;2023-09-19T00:08:15;8.25;;;3.22;;
43248;SDS011;29216;51.248;6.808;2023-09-19T00:10:41;8.65;;;3.25;;
43248;SDS011;29216;51.248;6.808;2023-09-19T00:13:07;10.55;;;3.40;;
43248;SDS011;29216;51.248;6.808;2023-09-19T00:15:38;11.68;;;2.92;;
43248;SDS011;29216;51.248;6.808;2023-09-19T00:18:05;9.60;;;2.80;;
43248;SDS011;29216;51.248;6.808;2023-09-19T00:20:31;8.02;;;2.80;;
43248;SDS011;29216;51.248;6.808;2023-09-19T00:22:58;8.80;;;3.33;;
43248;SDS011;29216;51.248;6.808;2023-09-19T00:25:30;8.82;;;2.80;;
43248;SDS011;29216;51.248;6.808;2023-09-19T00:28:06;8.27;;;3.05;;
43248;SDS011;29216;51.248;6.808;2023-09-19T00:30:32;10.38;;;3.08;;
43248;SDS011;29216;51.248;6.808;2023-09-19T00:32:59;9.77;;;2.88;;
43248;SDS011;29216;51.248;6.808;2023-09-19T00:35:25;10.85;;;3.00;;
43248;SDS011;29216;51.248;6.808;2023-09-19T00:37:52;12.00;;;2.85;;
43248;SDS011;29216;51.248;6.808;2023-09-19T00:40:18;11.95;;;3.40;;
43248;SDS011;29216;51.248;6.808;2023-09-19T00:42:45;11.48;;;3.47;;
43248;SDS011;29216;51.248;6.808;2023-09-19T00:45:12;15.50;;;3.50;;
43248;SDS011;29216;51.248;6.808;2023-09-19T00:47:39;9.52;;;2.85;;
43248;SDS011;29216;51.248;6.808;2023-09-19T00:50:06;9.18;;;2.92;;
43248;SDS011;29216;51.248;6.808;2023-09-19T00:52:37;12.10;;;3.00;;
43248;SDS011;29216;51.248;6.808;2023-09-19T00:55:04;14.25;;;3.20;;
43248;SDS011;29216;51.248;6.808;2023-09-19T00:57:31;14.90;;;3.35;;
43248;SDS011;29216;51.248;6.808;2023-09-19T00:59:57;8.25;;;2.63;;
43248;SDS011;29216;51.248;6.808;2023-09-19T01:02:24;14.00;;;2.65;;
43248;SDS011;29216;51.248;6.808;2023-09-19T01:04:53;8.60;;;2.83;;
43248;SDS011;29216;51.248;6.808;2023-09-19T01:07:19;10.63;;;3.10;;
43248;SDS011;29216;51.248;6.808;2023-09-19T01:09:46;9.20;;;2.90;;
43248;SDS011;29216;51.248;6.808;2023-09-19T01:12:12;17.13;;;2.88;;
43248;SDS011;29216;51.248;6.808;2023-09-19T01:22:16;10.02;;;2.53;;
43248;SDS011;29216;51.248;6.808;2023-09-19T01:30:17;14.45;;;2.97;;
43248;SDS011;29216;51.248;6.808;2023-09-19T01:32:47;13.50;;;3.13;;
43248;SDS011;29216;51.248;6.808;2023-09-19T01:35:13;15.00;;;3.45;;
43248;SDS011;29216;51.248;6.808;2023-09-19T01:37:39;10.05;;;3.40;;
43248;SDS011;29216;51.248;6.808;2023-09-19T01:40:08;10.35;;;2.80;;
43248;SDS011;29216;51.248;6.808;2023-09-19T01:45:12;10.20;;;3.00;;
43248;SDS011;29216;51.248;6.808;2023-09-19T01:47:48;8.30;;;3.63;;
43248;SDS011;29216;51.248;6.808;2023-09-19T01:52:49;8.45;;;2.97;;
43248;SDS011;29216;51.248;6.808;2023-09-19T01:55:17;12.68;;;3.22;;
43248;SDS011;29216;51.248;6.808;2023-09-19T01:57:49;12.68;;;3.22;;
43248;SDS011;29216;51.248;6.808;2023-09-19T02:02:45;8.40;;;2.83;;
43248;SDS011;29216;51.248;6.808;2023-09-19T02:05:12;9.20;;;2.95;;
43248;SDS011;29216;51.248;6.808;2023-09-19T02:07:39;6.35;;;2.67;;
43248;SDS011;29216;51.248;6.808;2023-09-19T02:10:05;11.38;;;2.95;;
43248;SDS011;29216;51.248;6.808;2023-09-19T02:12:32;14.02;;;3.85;;
43248;SDS011;29216;51.248;6.808;2023-09-19T02:14:59;9.15;;;2.92;;
43248;SDS011;29216;51.248;6.808;2023-09-19T02:17:25;12.25;;;3.05;;
43248;SDS011;29216;51.248;6.808;2023-09-19T02:19:52;8.82;;;3.03;;
43248;SDS011;29216;51.248;6.808;2023-09-19T02:22:18;10.00;;;2.60;;
43248;SDS011;29216;51.248;6.808;2023-09-19T02:24:44;10.55;;;3.00;;
43248;SDS011;29216;51.248;6.808;2023-09-19T02:27:13;8.32;;;3.03;;
43248;SDS011;29216;51.248;6.808;2023-09-19T02:29:40;6.97;;;2.60;;
43248;SDS011;29216;51.248;6.808;2023-09-19T02:32:06;9.63;;;2.90;;
43248;SDS011;29216;51.248;6.808;2023-09-19T02:34:34;6.68;;;2.72;;
43248;SDS011;29216;51.248;6.808;2023-09-19T02:37:01;8.52;;;2.75;;
43248;SDS011;29216;51.248;6.808;2023-09-19T02:39:30;9.05;;;3.20;;
43248;SDS011;29216;51.248;6.808;2023-09-19T02:41:56;11.23;;;2.75;;
43248;SDS011;29216;51.248;6.808;2023-09-19T02:44:22;15.13;;;3.33;;
43248;SDS011;29216;51.248;6.808;2023-09-19T02:46:48;15.55;;;3.30;;
43248;SDS011;29216;51.248;6.808;2023-09-19T02:49:14;10.18;;;2.70;;
43248;SDS011;29216;51.248;6.808;2023-09-19T02:51:42;5.53;;;2.42;;
43248;SDS011;29216;51.248;6.808;2023-09-19T02:54:12;6.15;;;2.53;;
43248;SDS011;29216;51.248;6.808;2023-09-19T02:56:38;8.20;;;2.38;;
43248;SDS011;29216;51.248;6.808;2023-09-19T02:59:05;8.52;;;2.60;;
43248;SDS011;29216;51.248;6.808;2023-09-19T03:01:31;7.30;;;2.75;;
43248;SDS011;29216;51.248;6.808;2023-09-19T03:03:58;10.88;;;2.65;;
43248;SDS011;29216;51.248;6.808;2023-09-19T03:06:24;9.13;;;3.25;;
43248;SDS011;29216;51.248;6.808;2023-09-19T03:08:50;10.02;;;2.60;;
43248;SDS011;29216;51.248;6.808;2023-09-19T03:11:17;9.00;;;2.75;;
43248;SDS011;29216;51.248;6.808;2023-09-19T03:13:50;12.23;;;2.80;;
43248;SDS011;29216;51.248;6.808;2023-09-19T03:16:16;10.75;;;3.05;;
43248;SDS011;29216;51.248;6.808;2023-09-19T03:18:43;11.23;;;3.03;;
43248;SDS011;29216;51.248;6.808;2023-09-19T03:21:10;14.07;;;3.10;;
43248;SDS011;29216;51.248;6.808;2023-09-19T03:23:36;11.40;;;3.45;;
43248;SDS011;29216;51.248;6.808;2023-09-19T03:26:03;12.63;;;2.67;;
43248;SDS011;29216;51.248;6.808;2023-09-19T03:28:32;9.80;;;2.97;;
43248;SDS011;29216;51.248;6.808;2023-09-19T03:31:05;10.48;;;3.20;;
43248;SDS011;29216;51.248;6.808;2023-09-19T03:33:31;10.90;;;3.20;;
43248;SDS011;29216;51.248;6.808;2023-09-19T03:35:59;16.75;;;3.15;;
43248;SDS011;29216;51.248;6.808;2023-09-19T03:38:26;10.85;;;3.47;;
43248;SDS011;29216;51.248;6.808;2023-09-19T03:40:52;6.07;;;2.70;;
43248;SDS011;29216;51.248;6.808;2023-09-19T03:43:18;7.85;;;3.50;;
43248;SDS011;29216;51.248;6.808;2023-09-19T03:45:44;10.55;;;3.53;;
43248;SDS011;29216;51.248;6.808;2023-09-19T03:48:11;10.50;;;2.90;;
43248;SDS011;29216;51.248;6.808;2023-09-19T03:50:37;10.20;;;2.70;;
43248;SDS011;29216;51.248;6.808;2023-09-19T03:53:04;9.73;;;2.70;;
43248;SDS011;29216;51.248;6.808;2023-09-19T03:55:32;8.07;;;2.90;;
43248;SDS011;29216;51.248;6.808;2023-09-19T03:58:00;8.50;;;3.03;;
43248;SDS011;29216;51.248;6.808;2023-09-19T04:00:26;7.82;;;2.72;;
43248;SDS011;29216;51.248;6.808;2023-09-19T04:02:52;11.90;;;2.85;;
43248;SDS011;29216;51.248;6.808;2023-09-19T04:05:19;12.32;;;2.92;;
43248;SDS011;29216;51.248;6.808;2023-09-19T04:07:45;10.35;;;2.90;;
43248;SDS011;29216;51.248;6.808;2023-09-19T04:10:11;10.27;;;2.60;;
43248;SDS011;29216;51.248;6.808;2023-09-19T04:12:37;11.93;;;3.25;;
43248;SDS011;29216;51.248;6.808;2023-09-19T04:15:06;9.88;;;3.00;;
43248;SDS011;29216;51.248;6.808;2023-09-19T04:17:33;9.50;;;3.33;;
43248;SDS011;29216;51.248;6.808;2023-09-19T04:19:59;13.98;;;4.03;;
43248;SDS011;29216;51.248;6.808;2023-09-19T04:22:25;7.00;;;2.70;;
43248;SDS011;29216;51.248;6.808;2023-09-19T04:24:51;10.93;;;2.90;;
43248;SDS011;29216;51.248;6.808;2023-09-19T04:27:17;10.35;;;2.95;;
43248;SDS011;29216;51.248;6.808;2023-09-19T04:29:43;10.13;;;3.90;;
43248;SDS011;29216;51.248;6.808;2023-09-19T04:32:09;8.15;;;2.83;;
43248;SDS011;29216;51.248;6.808;2023-09-19T04:34:37;12.80;;;3.10;;
43248;SDS011;29216;51.248;6.808;2023-09-19T04:37:06;10.85;;;3.00;;
43248;SDS011;29216;51.248;6.808;2023-09-19T04:39:32;10.75;;;4.35;;
43248;SDS011;29216;51.248;6.808;2023-09-19T04:41:59;19.65;;;4.53;;
43248;SDS011;29216;51.248;6.808;2023-09-19T04:44:25;9.18;;;3.35;;
43248;SDS011;29216;51.248;6.808;2023-09-19T04:46:51;11.68;;;2.78;;
43248;SDS011;29216;51.248;6.808;2023-09-19T04:49:17;12.13;;;3.53;;
43248;SDS011;29216;51.248;6.808;2023-09-19T04:51:43;13.18;;;3.20;;
43248;SDS011;29216;51.248;6.808;2023-09-19T04:54:11;13.43;;;2.95;;
43248;SDS011;29216;51.248;6.808;2023-09-19T04:56:38;12.65;;;3.22;;
43248;SDS011;29216;51.248;6.808;2023-09-19T04:59:05;10.02;;;2.80;;
43248;SDS011;29216;51.248;6.808;2023-09-19T05:01:31;8.68;;;3.05;;
43248;SDS011;29216;51.248;6.808;2023-09-19T05:03:57;9.00;;;2.90;;
43248;SDS011;29216;51.248;6.808;2023-09-19T05:06:23;10.05;;;3.08;;
43248;SDS011;29216;51.248;6.808;2023-09-19T05:08:51;14.68;;;3.33;;
43248;SDS011;29216;51.248;6.808;2023-09-19T05:11:20;17.98;;;2.95;;
43248;SDS011;29216;51.248;6.808;2023-09-19T05:13:47;12.57;;;3.15;;
43248;SDS011;29216;51.248;6.808;2023-09-19T05:16:15;6.75;;;2.85;;
43248;SDS011;29216;51.248;6.808;2023-09-19T05:18:41;13.75;;;3.50;;
43248;SDS011;29216;51.248;6.808;2023-09-19T05:21:07;9.20;;;2.58;;
43248;SDS011;29216;51.248;6.808;2023-09-19T05:23:33;9.65;;;2.78;;
43248;SDS011;29216;51.248;6.808;2023-09-19T05:25:59;10.63;;;2.90;;
43248;SDS011;29216;51.248;6.808;2023-09-19T05:28:25;9.57;;;2.65;;
43248;SDS011;29216;51.248;6.808;2023-09-19T05:30:52;8.60;;;2.75;;
43248;SDS011;29216;51.248;6.808;2023-09-19T05:33:18;7.00;;;2.67;;
43248;SDS011;29216;51.248;6.808;2023-09-19T05:35:44;12.98;;;3.03;;
43248;SDS011;29216;51.248;6.808;2023-09-19T05:38:12;12.82;;;3.63;;
43248;SDS011;29216;51.248;6.808;2023-09-19T05:40:39;10.52;;;2.95;;
43248;SDS011;29216;51.248;6.808;2023-09-19T05:43:07;18.13;;;4.38;;
43248;SDS011;29216;51.248;6.808;2023-09-19T05:45:33;10.15;;;2.97;;
43248;SDS011;29216;51.248;6.808;2023-09-19T05:48:12;9.80;;;2.88;;
43248;SDS011;29216;51.248;6.808;2023-09-19T05:50:40;13.77;;;3.33;;
43248;SDS011;29216;51.248;6.808;2023-09-19T05:53:07;10.27;;;3.17;;
43248;SDS011;29216;51.248;6.808;2023-09-19T05:55:33;12.95;;;3.80;;
43248;SDS011;29216;51.248;6.808;2023-09-19T05:58:00;8.00;;;2.58;;
43248;SDS011;29216;51.248;6.808;2023-09-19T06:00:28;12.88;;;3.20;;
43248;SDS011;29216;51.248;6.808;2023-09-19T06:02:57;13.55;;;3.63;;
43248;SDS011;29216;51.248;6.808;2023-09-19T06:05:24;8.13;;;2.65;;
43248;SDS011;29216;51.248;6.808;2023-09-19T06:07:51;14.02;;;3.38;;
43248;SDS011;29216;51.248;6.808;2023-09-19T06:10:18;17.10;;;3.38;;
43248;SDS011;29216;51.248;6.808;2023-09-19T06:12:45;12.63;;;3.33;;
43248;SDS011;29216;51.248;6.808;2023-09-19T06:15:12;7.85;;;3.10;;
43248;SDS011;29216;51.248;6.808;2023-09-19T06:17:41;7.18;;;2.70;;
43248;SDS011;29216;51.248;6.808;2023-09-19T06:20:07;15.02;;;4.05;;
43248;SDS011;29216;51.248;6.808;2023-09-19T06:22:43;11.77;;;2.92;;
43248;SDS011;29216;51.248;6.808;2023-09-19T06:25:09;12.52;;;3.05;;
43248;SDS011;29216;51.248;6.808;2023-09-19T06:27:44;12.38;;;3.50;;
43248;SDS011;29216;51.248;6.808;2023-09-19T06:30:13;12.25;;;3.20;;
43248;SDS011;29216;51.248;6.808;2023-09-19T06:32:42;7.78;;;2.83;;
43248;SDS011;29216;51.248;6.808;2023-09-19T06:35:12;9.48;;;2.67;;
43248;SDS011;29216;51.248;6.808;2023-09-19T06:37:38;10.52;;;3.00;;
43248;SDS011;29216;51.248;6.808;2023-09-19T06:40:06;10.38;;;2.95;;
43248;SDS011;29216;51.248;6.808;2023-09-19T06:42:33;8.95;;;2.70;;
43248;SDS011;29216;51.248;6.808;2023-09-19T06:45:02;10.48;;;3.05;;
43248;SDS011;29216;51.248;6.808;2023-09-19T06:47:28;11.25;;;3.22;;
43248;SDS011;29216;51.248;6.808;2023-09-19T06:49:55;12.35;;;3.03;;
43248;SDS011;29216;51.248;6.808;2023-09-19T06:52:20;12.45;;;3.90;;
43248;SDS011;29216;51.248;6.808;2023-09-19T06:54:47;11.48;;;2.83;;
43248;SDS011;29216;51.248;6.808;2023-09-19T06:57:15;10.68;;;3.53;;
43248;SDS011;29216;51.248;6.808;2023-09-19T06:59:41;9.23;;;2.88;;
43248;SDS011;29216;51.248;6.808;2023-09-19T07:02:07;13.18;;;3.20;;
43248;SDS011;29216;51.248;6.808;2023-09-19T07:04:33;13.75;;;3.20;;
43248;SDS011;29216;51.248;6.808;2023-09-19T07:06:59;10.07;;;3.03;;
43248;SDS011;29216;51.248;6.808;2023-09-19T07:09:25;9.57;;;2.88;;
43248;SDS011;29216;51.248;6.808;2023-09-19T07:11:52;16.83;;;3.22;;
43248;SDS011;29216;51.248;6.808;2023-09-19T07:14:18;10.75;;;3.20;;
43248;SDS011;29216;51.248;6.808;2023-09-19T07:16:44;11.57;;;2.92;;
43248;SDS011;29216;51.248;6.808;2023-09-19T07:19:12;9.27;;;2.97;;
43248;SDS011;29216;51.248;6.808;2023-09-19T07:21:40;9.73;;;3.00;;
43248;SDS011;29216;51.248;6.808;2023-09-19T07:24:07;7.97;;;2.70;;
43248;SDS011;29216;51.248;6.808;2023-09-19T07:26:33;13.48;;;3.47;;
43248;SDS011;29216;51.248;6.808;2023-09-19T07:29:00;9.27;;;2.78;;
43248;SDS011;29216;51.248;6.808;2023-09-19T07:31:29;9.55;;;3.08;;
43248;SDS011;29216;51.248;6.808;2023-09-19T07:33:56;9.68;;;3.05;;
43248;SDS011;29216;51.248;6.808;2023-09-19T07:36:21;10.52;;;2.92;;
43248;SDS011;29216;51.248;6.808;2023-09-19T07:38:49;8.05;;;2.75;;
43248;SDS011;29216;51.248;6.808;2023-09-19T07:41:18;9.07;;;3.00;;
43248;SDS011;29216;51.248;6.808;2023-09-19T07:43:52;12.27;;;2.83;;
43248;SDS011;29216;51.248;6.808;2023-09-19T07:46:31;11.57;;;3.25;;
43248;SDS011;29216;51.248;6.808;2023-09-19T07:48:57;14.43;;;3.25;;
43248;SDS011;29216;51.248;6.808;2023-09-19T07:51:23;10.30;;;2.50;;
43248;SDS011;29216;51.248;6.808;2023-09-19T07:53:49;7.65;;;2.95;;
43248;SDS011;29216;51.248;6.808;2023-09-19T07:56:15;9.05;;;2.95;;
43248;SDS011;29216;51.248;6.808;2023-09-19T07:58:44;14.68;;;3.58;;
43248;SDS011;29216;51.248;6.808;2023-09-19T08:01:10;9.98;;;3.17;;
43248;SDS011;29216;51.248;6.808;2023-09-19T08:03:39;11.95;;;2.80;;
43248;SDS011;29216;51.248;6.808;2023-09-19T08:06:09;11.23;;;3.10;;
43248;SDS011;29216;51.248;6.808;2023-09-19T08:08:35;8.43;;;2.85;;
43248;SDS011;29216;51.248;6.808;2023-09-19T08:11:04;8.82;;;3.10;;
43248;SDS011;29216;51.248;6.808;2023-09-19T08:13:36;15.20;;;2.83;;
43248;SDS011;29216;51.248;6.808;2023-09-19T08:16:03;14.70;;;2.70;;
43248;SDS011;29216;51.248;6.808;2023-09-19T08:18:30;10.57;;;2.58;;
43248;SDS011;29216;51.248;6.808;2023-09-19T08:20:56;8.20;;;2.65;;
43248;SDS011;29216;51.248;6.808;2023-09-19T08:23:23;11.77;;;2.70;;
43248;SDS011;29216;51.248;6.808;2023-09-19T08:25:49;5.68;;;2.53;;
43248;SDS011;29216;51.248;6.808;2023-09-19T08:28:15;7.90;;;3.10;;
43248;SDS011;29216;51.248;6.808;2023-09-19T08:30:49;10.30;;;3.10;;
43248;SDS011;29216;51.248;6.808;2023-09-19T08:33:15;8.73;;;2.85;;
43248;SDS011;29216;51.248;6.808;2023-09-19T08:35:42;9.55;;;2.92;;
43248;SDS011;29216;51.248;6.808;2023-09-19T08:38:11;11.13;;;3.17;;
43248;SDS011;29216;51.248;6.808;2023-09-19T08:40:39;10.13;;;3.10;;
43248;SDS011;29216;51.248;6.808;2023-09-19T08:43:07;8.23;;;2.50;;
43248;SDS011;29216;51.248;6.808;2023-09-19T08:45:33;8.77;;;2.80;;
43248;SDS011;29216;51.248;6.808;2023-09-19T08:51:00;7.10;;;2.97;;
43248;SDS011;29216;51.248;6.808;2023-09-19T08:53:33;8.88;;;3.00;;
43248;SDS011;29216;51.248;6.808;2023-09-19T08:56:00;13.95;;;4.25;;
43248;SDS011;29216;51.248;6.808;2023-09-19T08:58:30;9.60;;;2.85;;
43248;SDS011;29216;51.248;6.808;2023-09-19T09:00:58;11.40;;;3.30;;
43248;SDS011;29216;51.248;6.808;2023-09-19T09:03:26;5.28;;;2.38;;
43248;SDS011;29216;51.248;6.808;2023-09-19T09:05:52;8.13;;;2.80;;
43248;SDS011;29216;51.248;6.808;2023-09-19T09:08:19;8.02;;;2.97;;
43248;SDS011;29216;51.248;6.808;2023-09-19T09:10:46;12.05;;;3.80;;
43248;SDS011;29216;51.248;6.808;2023-09-19T09:13:13;11.10;;;3.38;;
43248;SDS011;29216;51.248;6.808;2023-09-19T09:15:40;8.70;;;3.08;;
43248;SDS011;29216;51.248;6.808;2023-09-19T09:18:06;10.18;;;3.10;;
43248;SDS011;29216;51.248;6.808;2023-09-19T09:20:33;12.00;;;3.55;;
43248;SDS011;29216;51.248;6.808;2023-09-19T09:22:59;7.32;;;3.03;;
43248;SDS011;29216;51.248;6.808;2023-09-19T09:28:34;12.93;;;3.25;;
43248;SDS011;29216;51.248;6.808;2023-09-19T09:31:04;6.63;;;2.80;;
43248;SDS011;29216;51.248;6.808;2023-09-19T09:33:34;11.57;;;3.00;;
43248;SDS011;29216;51.248;6.808;2023-09-19T09:36:02;12.52;;;3.28;;
43248;SDS011;29216;51.248;6.808;2023-09-19T09:38:30;9.05;;;2.78;;
43248;SDS011;29216;51.248;6.808;2023-09-19T09:41:09;10.90;;;3.05;;
43248;SDS011;29216;51.248;6.808;2023-09-19T09:43:40;8.82;;;2.75;;
43248;SDS011;29216;51.248;6.808;2023-09-19T09:51:43;7.15;;;2.85;;
43248;SDS011;29216;51.248;6.808;2023-09-19T09:54:22;8.30;;;2.65;;
43248;SDS011;29216;51.248;6.808;2023-09-19T09:56:56;14.07;;;2.90;;
43248;SDS011;29216;51.248;6.808;2023-09-19T10:02:27;12.77;;;3.17;;
43248;SDS011;29216;51.248;6.808;2023-09-19T10:05:11;8.80;;;3.17;;
43248;SDS011;29216;51.248;6.808;2023-09-19T10:07:50;12.10;;;3.33;;
43248;SDS011;29216;51.248;6.808;2023-09-19T10:10:37;8.32;;;3.00;;
43248;SDS011;29216;51.248;6.808;2023-09-19T10:13:07;8.40;;;2.70;;
43248;SDS011;29216;51.248;6.808;2023-09-19T10:15:37;13.80;;;3.75;;
43248;SDS011;29216;51.248;6.808;2023-09-19T10:18:06;27.27;;;4.97;;
43248;SDS011;29216;51.248;6.808;2023-09-19T10:20:33;10.60;;;2.63;;
43248;SDS011;29216;51.248;6.808;2023-09-19T10:23:10;7.65;;;2.90;;
43248;SDS011;29216;51.248;6.808;2023-09-19T10:25:38;6.18;;;2.50;;
43248;SDS011;29216;51.248;6.808;2023-09-19T10:28:08;7.57;;;2.97;;
43248;SDS011;29216;51.248;6.808;2023-09-19T10:33:08;11.52;;;3.95;;
43248;SDS011;29216;51.248;6.808;2023-09-19T10:35:36;14.77;;;3.58;;
43248;SDS011;29216;51.248;6.808;2023-09-19T10:38:05;10.20;;;3.00;;
43248;SDS011;29216;51.248;6.808;2023-09-19T10:40:32;7.00;;;2.90;;
43248;SDS011;29216;51.248;6.808;2023-09-19T10:43:01;12.68;;;4.10;;
43248;SDS011;29216;51.248;6.808;2023-09-19T10:45:33;10.75;;;2.53;;
43248;SDS011;29216;51.248;6.808;2023-09-19T10:48:00;7.75;;;2.75;;
43248;SDS011;29216;51.248;6.808;2023-09-19T10:50:31;6.85;;;2.40;;
43248;SDS011;29216;51.248;6.808;2023-09-19T10:53:00;9.20;;;2.95;;
43248;SDS011;29216;51.248;6.808;2023-09-19T10:55:29;8.27;;;2.60;;
43248;SDS011;29216;51.248;6.808;2023-09-19T10:57:56;8.68;;;2.80;;
43248;SDS011;29216;51.248;6.808;2023-09-19T11:00:52;7.43;;;3.00;;
43248;SDS011;29216;51.248;6.808;2023-09-19T11:03:19;8.40;;;3.00;;
43248;SDS011;29216;51.248;6.808;2023-09-19T11:06:03;7.18;;;2.60;;
43248;SDS011;29216;51.248;6.808;2023-09-19T11:08:50;8.87;;;2.50;;
43248;SDS011;29216;51.248;6.808;2023-09-19T11:14:16;8.05;;;2.65;;
43248;SDS011;29216;51.248;6.808;2023-09-19T11:17:29;8.77;;;3.30;;
43248;SDS011;29216;51.248;6.808;2023-09-19T11:22:18;13.57;;;3.05;;
43248;SDS011;29216;51.248;6.808;2023-09-19T11:24:47;10.68;;;3.13;;
43248;SDS011;29216;51.248;6.808;2023-09-19T11:27:16;8.90;;;2.78;;
43248;SDS011;29216;51.248;6.808;2023-09-19T11:29:43;10.50;;;2.75;;
43248;SDS011;29216;51.248;6.808;2023-09-19T11:32:10;6.22;;;2.42;;
43248;SDS011;29216;51.248;6.808;2023-09-19T11:40:04;11.48;;;2.97;;
43248;SDS011;29216;51.248;6.808;2023-09-19T11:42:42;9.70;;;2.83;;
43248;SDS011;29216;51.248;6.808;2023-09-19T11:47:54;6.85;;;3.00;;
43248;SDS011;29216;51.248;6.808;2023-09-19T11:50:22;6.53;;;2.70;;
43248;SDS011;29216;51.248;6.808;2023-09-19T11:52:50;9.43;;;3.15;;
43248;SDS011;29216;51.248;6.808;2023-09-19T11:55:17;7.95;;;2.97;;
43248;SDS011;29216;51.248;6.808;2023-09-19T11:57:46;6.25;;;2.50;;
43248;SDS011;29216;51.248;6.808;2023-09-19T12:00:19;10.45;;;2.90;;
43248;SDS011;29216;51.248;6.808;2023-09-19T12:02:46;8.77;;;2.92;;
43248;SDS011;29216;51.248;6.808;2023-09-19T12:05:13;13.05;;;3.45;;
43248;SDS011;29216;51.248;6.808;2023-09-19T12:07:43;8.55;;;2.83;;
43248;SDS011;29216;51.248;6.808;2023-09-19T12:10:12;6.72;;;2.90;;
43248;SDS011;29216;51.248;6.808;2023-09-19T12:12:46;9.00;;;2.97;;
43248;SDS011;29216;51.248;6.808;2023-09-19T12:15:26;6.15;;;2.97;;
43248;SDS011;29216;51.248;6.808;2023-09-19T12:17:59;7.25;;;2.70;;
43248;SDS011;29216;51.248;6.808;2023-09-19T12:20:25;8.02;;;2.70;;
43248;SDS011;29216;51.248;6.808;2023-09-19T12:22:51;8.88;;;2.92;;
43248;SDS011;29216;51.248;6.808;2023-09-19T12:25:17;7.65;;;2.67;;
43248;SDS011;29216;51.248;6.808;2023-09-19T12:27:45;7.57;;;2.88;;
43248;SDS011;29216;51.248;6.808;2023-09-19T12:30:12;9.00;;;3.00;;
43248;SDS011;29216;51.248;6.808;2023-09-19T12:32:43;9.85;;;3.00;;
43248;SDS011;29216;51.248;6.808;2023-09-19T12:35:09;8.07;;;2.40;;
43248;SDS011;29216;51.248;6.808;2023-09-19T12:37:37;7.72;;;2.80;;
43248;SDS011;29216;51.248;6.808;2023-09-19T12:40:10;10.40;;;2.85;;
43248;SDS011;29216;51.248;6.808;2023-09-19T12:42:46;9.13;;;2.40;;
43248;SDS011;29216;51.248;6.808;2023-09-19T12:45:12;12.02;;;2.75;;
43248;SDS011;29216;51.248;6.808;2023-09-19T12:47:40;7.22;;;2.72;;
43248;SDS011;29216;51.248;6.808;2023-09-19T12:50:15;7.95;;;3.30;;
43248;SDS011;29216;51.248;6.808;2023-09-19T12:52:50;6.53;;;2.28;;
43248;SDS011;29216;51.248;6.808;2023-09-19T12:55:23;8.40;;;2.60;;
43248;SDS011;29216;51.248;6.808;2023-09-19T12:57:59;6.20;;;2.63;;
43248;SDS011;29216;51.248;6.808;2023-09-19T13:00:33;7.88;;;2.60;;
43248;SDS011;29216;51.248;6.808;2023-09-19T13:06:00;6.57;;;2.42;;
43248;SDS011;29216;51.248;6.808;2023-09-19T13:08:28;8.20;;;2.63;;
43248;SDS011;29216;51.248;6.808;2023-09-19T13:10:59;4.47;;;1.92;;
43248;SDS011;29216;51.248;6.808;2023-09-19T13:13:25;10.73;;;2.25;;
43248;SDS011;29216;51.248;6.808;2023-09-19T13:15:53;8.10;;;2.30;;
43248;SDS011;29216;51.248;6.808;2023-09-19T13:18:19;7.03;;;2.33;;
43248;SDS011;29216;51.248;6.808;2023-09-19T13:21:04;7.18;;;2.25;;
43248;SDS011;29216;51.248;6.808;2023-09-19T13:23:31;6.63;;;2.05;;
43248;SDS011;29216;51.248;6.808;2023-09-19T13:25:57;3.90;;;1.90;;
43248;SDS011;29216;51.248;6.808;2023-09-19T13:28:23;6.15;;;2.15;;
43248;SDS011;29216;51.248;6.808;2023-09-19T13:30:49;4.30;;;2.10;;
43248;SDS011;29216;51.248;6.808;2023-09-19T13:33:15;7.68;;;2.33;;
43248;SDS011;29216;51.248;6.808;2023-09-19T13:35:46;3.63;;;1.92;;
43248;SDS011;29216;51.248;6.808;2023-09-19T13:38:13;4.32;;;2.03;;
43248;SDS011;29216;51.248;6.808;2023-09-19T13:40:39;7.38;;;2.08;;
43248;SDS011;29216;51.248;6.808;2023-09-19T13:43:07;4.32;;;1.65;;
43248;SDS011;29216;51.248;6.808;2023-09-19T13:45:33;8.38;;;2.00;;
43248;SDS011;29216;51.248;6.808;2023-09-19T13:47:59;4.15;;;1.90;;
43248;SDS011;29216;51.248;6.808;2023-09-19T13:50:25;3.47;;;2.05;;
43248;SDS011;29216;51.248;6.808;2023-09-19T13:52:54;4.32;;;2.15;;
43248;SDS011;29216;51.248;6.808;2023-09-19T13:55:20;4.18;;;2.00;;
43248;SDS011;29216;51.248;6.808;2023-09-19T13:57:47;6.45;;;2.00;;
43248;SDS011;29216;51.248;6.808;2023-09-19T14:00:19;2.67;;;1.90;;
43248;SDS011;29216;51.248;6.808;2023-09-19T14:02:45;5.63;;;2.15;;
43248;SDS011;29216;51.248;6.808;2023-09-19T14:05:13;5.35;;;2.05;;
43248;SDS011;29216;51.248;6.808;2023-09-19T14:07:41;4.90;;;2.20;;
43248;SDS011;29216;51.248;6.808;2023-09-19T14:10:07;4.25;;;2.13;;
43248;SDS011;29216;51.248;6.808;2023-09-19T14:12:35;8.07;;;1.90;;
43248;SDS011;29216;51.248;6.808;2023-09-19T14:15:01;3.70;;;1.63;;
43248;SDS011;29216;51.248;6.808;2023-09-19T14:17:27;6.07;;;2.17;;
43248;SDS011;29216;51.248;6.808;2023-09-19T14:19:53;4.40;;;1.55;;
43248;SDS011;29216;51.248;6.808;2023-09-19T14:22:19;3.65;;;1.90;;
43248;SDS011;29216;51.248;6.808;2023-09-19T14:24:45;5.53;;;2.15;;
43248;SDS011;29216;51.248;6.808;2023-09-19T14:27:11;6.15;;;2.00;;
43248;SDS011;29216;51.248;6.808;2023-09-19T14:29:37;3.85;;;1.80;;
43248;SDS011;29216;51.248;6.808;2023-09-19T14:32:04;4.55;;;1.45;;
43248;SDS011;29216;51.248;6.808;2023-09-19T14:34:30;4.07;;;1.70;;
43248;SDS011;29216;51.248;6.808;2023-09-19T14:36:57;5.72;;;1.70;;
43248;SDS011;29216;51.248;6.808;2023-09-19T14:39:23;3.15;;;1.80;;
43248;SDS011;29216;51.248;6.808;2023-09-19T14:41:50;3.45;;;1.83;;
43248;SDS011;29216;51.248;6.808;2023-09-19T14:44:16;6.90;;;1.80;;
43248;SDS011;29216;51.248;6.808;2023-09-19T14:46:42;10.07;;;2.03;;
43248;SDS011;29216;51.248;6.808;2023-09-19T14:49:10;4.93;;;1.85;;
43248;SDS011;29216;51.248;6.808;2023-09-19T14:51:37;3.03;;;1.45;;
43248;SDS011;29216;51.248;6.808;2023-09-19T14:54:04;6.35;;;1.92;;
43248;SDS011;29216;51.248;6.808;2023-09-19T14:56:32;7.72;;;1.80;;
43248;SDS011;29216;51.248;6.808;2023-09-19T14:58:59;4.18;;;1.70;;
43248;SDS011;29216;51.248;6.808;2023-09-19T15:01:25;5.60;;;1.65;;
43248;SDS011;29216;51.248;6.808;2023-09-19T15:03:51;5.40;;;1.67;;
43248;SDS011;29216;51.248;6.808;2023-09-19T15:06:19;2.85;;;1.40;;
43248;SDS011;29216;51.248;6.808;2023-09-19T15:08:45;6.03;;;2.17;;
43248;SDS011;29216;51.248;6.808;2023-09-19T15:11:16;4.88;;;1.77;;
43248;SDS011;29216;51.248;6.808;2023-09-19T15:13:42;5.00;;;1.70;;
43248;SDS011;29216;51.248;6.808;2023-09-19T15:16:09;5.03;;;2.03;;
43248;SDS011;29216;51.248;6.808;2023-09-19T15:18:39;2.53;;;1.50;;
43248;SDS011;29216;51.248;6.808;2023-09-19T15:21:06;3.92;;;1.90;;
43248;SDS011;29216;51.248;6.808;2023-09-19T15:23:33;4.25;;;1.80;;
43248;SDS011;29216;51.248;6.808;2023-09-19T15:26:02;3.95;;;1.60;;
43248;SDS011;29216;51.248;6.808;2023-09-19T15:28:29;4.25;;;1.63;;
43248;SDS011;29216;51.248;6.808;2023-09-19T15:30:57;5.55;;;2.05;;
43248;SDS011;29216;51.248;6.808;2023-09-19T15:33:23;4.43;;;1.77;;
43248;SDS011;29216;51.248;6.808;2023-09-19T15:35:50;2.80;;;1.55;;
43248;SDS011;29216;51.248;6.808;2023-09-19T15:38:16;3.20;;;1.70;;
43248;SDS011;29216;51.248;6.808;2023-09-19T15:40:46;4.53;;;1.63;;
43248;SDS011;29216;51.248;6.808;2023-09-19T15:43:11;5.30;;;1.52;;